METAR Data
IDs: Format: Raw Decoded Include TAF

Data at: 1715 UTC 21 Sep 2018

KIAH 211653Z 17008KT 10SM SCT020CB BKN190 BKN250 31/26 A2997 RMK AO2 SLP148 CB VCSH SE-S MOV N T03060261
KIAH 211553Z 16008KT 10SM SCT015 BKN190 BKN250 29/27 A2997 RMK AO2 SLP149 T02940267
KIAH 211453Z 15009KT 10SM FEW010 BKN180 BKN250 29/27 A2997 RMK AO2 SLP147 60002 T02890272 51004
KIAH 211353Z 16004KT 10SM FEW120 BKN180 BKN250 27/27 A2997 RMK AO2 SLP147 T02720267
KIAH 211253Z 13007KT 10SM FEW070 SCT120 OVC160 26/26 A2996 RMK AO2 RAB04E47 SLP145 P0002 T02610261
KIAH 211153Z 00000KT 10SM FEW050 SCT120 OVC170 27/26 A2996 RMK AO2 SLP144 VCSH W-NW 60000 70069 T02670261 10272 20256 53009
KIAH 211053Z 00000KT 10SM FEW025 SCT120 OVC170 26/26 A2995 RMK AO2 RAB00E09 SLP141 SHRA DSNT W-N-NE P0000 T02610261
KIAH 210953Z 00000KT 10SM FEW025 SCT100 OVC150 26/26 A2993 RMK AO2 SLP136 VCSH NW-N T02610261
KIAH 210853Z 00000KT 10SM FEW025 SCT090 OVC150 27/26 A2993 RMK AO2 RAB38E53 SLP135 P0000 60000 T02670261 55009
KIAH 210753Z 00000KT 10SM FEW025 BKN150 OVC200 27/26 A2993 RMK AO2 SLP134 T02670261
KIAH 210653Z 17003KT 10SM FEW025 FEW060 OVC150 26/26 A2995 RMK AO2 SLP139 T02610256
KIAH 210553Z 17003KT 10SM BKN150 BKN250 26/26 A2996 RMK AO2 SLP143 T02610256 10272 20256 403220233 58001
KIAH 210453Z 17004KT 10SM FEW020 BKN150 BKN250 27/26 A2997 RMK AO2 SLP147 T02670256
KIAH 210353Z 16004KT 10SM FEW025 SCT150 BKN250 27/26 A2997 RMK AO2 SLP146 T02670256
KIAH 210253Z 15003KT 10SM FEW025 SCT190 BKN250 26/26 A2996 RMK AO2 SLP144 T02560256 53016
KIAH 210153Z 18003KT 10SM FEW026 SCT190 BKN250 27/26 A2994 RMK AO2 SLP138 T02720256
KIAH 210053Z 15007KT 10SM FEW032 SCT120 BKN200 27/26 A2992 RMK AO2 SLP133 T02720256
KIAH 202353Z 13007KT 10SM SCT035 SCT120 BKN170 BKN250 27/26 A2991 RMK AO2 SLP130 60069 T02670261 10294 20233 55006
KIAH 202253Z 12007KT 10SM SCT030 SCT110 BKN180 BKN250 27/26 A2991 RMK AO2 LTG DSNT W SLP127 CB DSNT SW-W MOV N T02670261
KIAH 202153Z 25003KT 10SM FEW012 SCT030 BKN100 BKN250 26/26 A2991 RMK AO2 PK WND 12031/2122 RAE53 TSE51 SLP127 TS MOVD N VCSH N AND SW-W P0046 T02610256
KIAH 202138Z 07004KT 7SM -TSRA FEW013 SCT030CB SCT100 BKN250 25/24 A2992 RMK AO2 PK WND 12031/2122 VIS NW-NE 1 OCNL LTGICCG NW-NE TS NW-NE MOV N P0036 T02500244
KIAH 202134Z 12008KT 1 1/2SM +TSRA BR FEW008 SCT025CB SCT100 BKN250 24/24 A2992 RMK AO2 PK WND 12031/2122 VIS SE-SW 7 OCNL LTGICCG NW-NE TS NW-NE MOV N P0027 T02440239
KIAH 202119Z 12022G29KT 3/4SM +TSRA FEW008 SCT025CB BKN080 BKN250 25/21 A2994 RMK AO2 PK WND 13029/2119 OCNL LTGICCG OHD SE-S TS OHD SE-S MOV N P0018 T02500211
KIAH 202053Z 18013G26KT 1 1/4SM +TSRA BR FEW010 SCT030CB BKN080 BKN250 24/23 A2993 RMK AO2 PK WND 15026/2046 SLP136 OCNL LTGICCG OHD SE-S TS OHD SE-S MOV N P0014 60023 T02390233 55012
KIAH 202044Z 15016G21KT 1SM +TSRA BR FEW010 SCT035CB BKN090 BKN250 24/23 A2995 RMK AO2 PRESRR VIS W-NW 7 OCNL LTGICCG SE-S AND NW TS SE-S AND NW MOV N P0006 T02390233
KIAH 202026Z 15011KT 4SM TSRA BR FEW010 SCT035CB BKN090 BKN250 24/23 A2993 RMK AO2 VIS SE AND NW 2 OCNL LTGICCG SE NW TS SE NW MOV N P0004 T02390228
KIAH 202008Z 17013G16KT 1 1/2SM TSRA BR FEW015 BKN040CB BKN090 BKN250 27/26 A2995 RMK AO2 OCNL LTGICCG OHD S TS OHD S MOV N P0000 T02720261
KIAH 201953Z 24004KT 7SM +TSRA FEW030 BKN045CB BKN090 BKN250 28/27 A2993 RMK AO2 RAB36 TSB21 SLP135 OCNL LTGICCG OHD SW TS OHD SW MOV N MDT CU ALQDS P0009 T02780267
KIAH 201922Z 11010KT 10SM TS FEW035 SCT045CB BKN110 BKN250 29/26 A2994 RMK AO2 TSB21 OCNL LTGICCG S-SW TS S-SW MOV N T02890256
KIAH 201853Z 11008KT 10SM FEW035 SCT045TCU BKN120 BKN250 28/25 A2995 RMK AO2 SLP143 OCNL LTGICCG DSNT SE SW N CB DSNT SE SW N MOV N TCU ALQDS T02830250
KIAH 201753Z 15010KT 10SM SCT035 SCT045TCU BKN120 BKN250 29/24 A2997 RMK AO2 TSE42 SLP147 TS DSPTD SHRA NE SW-NW TCU ALQDS T02940239 10322 20244 58005
KIAH 201743Z 14012KT 10SM SCT035 SCT050TCU BKN120 BKN250 29/24 A2998 RMK AO2 TSE42 TS DSPTD SHRA NE SW-NW TCU ALQDS T02940239
KIAH 201653Z 14009KT 10SM TS SCT030 BKN045CB BKN150 BKN250 31/25 A2999 RMK AO2 TSB38 SLP153 OCNL LTGICCCCG SE TS SE MOV N T03060250
KIAH 201639Z 17005KT 10SM TS FEW030 BKN042CB BKN150 BKN250 31/25 A2999 RMK AO2 TSB38 OCNL LTGICCCCG SE TS SE MOV N T03110250
KIAH 201553Z 15009KT 10SM FEW025 BKN035 BKN150 BKN250 31/24 A2999 RMK AO2 SLP154 TCU BLDG SE-SW T03060244
KIAH 201453Z 15007KT 10SM SCT022 SCT150 SCT250 29/26 A2998 RMK AO2 SLP151 T02940261 51014
KIAH 201353Z 12004KT 10SM FEW025 FEW150 SCT200 28/26 A2997 RMK AO2 SLP148 T02780261
KIAH 201253Z 00000KT 10SM FEW025 SCT150 SCT200 25/25 A2995 RMK AO2 SLP141 T02500250
KIAH 201153Z 00000KT 10SM FEW020 BKN200 24/24 A2994 RMK AO2 SLP137 T02440244 10256 20239 55001
KIAH 201053Z 00000KT 10SM FEW020 FEW150 BKN200 24/24 A2993 RMK AO2 SLP134 T02440244
KIAH 200953Z 21003KT 10SM FEW020 FEW150 BKN250 24/24 A2994 RMK AO2 SLP135 T02440244
KIAH 200853Z 00000KT 10SM SCT018 SCT150 BKN250 24/24 A2994 RMK AO2 SLP139 T02440244 56007
KIAH 200753Z 00000KT 10SM FEW150 BKN250 24/24 A2994 RMK AO2 SLP138 T02440244
KIAH 200653Z 00000KT 10SM SCT150 SCT250 24/24 A2996 RMK AO2 SLP143 T02390239
KIAH 200553Z 00000KT 10SM FEW150 FEW250 24/24 A2997 RMK AO2 SLP145 T02440239 10311 20244 403440239 53007